Terminal Aerodrome Forecast
Issued by NWS

Home | Current Version | Previous Version | Text Only | Print | Product List | Glossary On
Versions: 1 2 3 4 5 6 7 8 9 10 11 12 13 14 15 16 17 18
000
FTUS43 KDTX 281120
TAFDET
TAF
KDET 281120Z 2812/2912 00000KT P6SM SCT250
     FM281400 16005KT P6SM SCT045 SCT250
     FM282000 19006KT P6SM BKN050 BKN250
     FM290100 16005KT P6SM BKN150 OVC250=

USA.gov is the U.S. government's official web portal to all federal, state and local government web resources and services.